createdAt,value
2019-01-18T00:01:35.983Z,99259.91
2019-01-18T00:04:06.855Z,99267.17
2019-01-18T00:06:37.741Z,99275.84
2019-01-18T00:09:09.107Z,99276.51
2019-01-18T00:11:40.332Z,99281.97
2019-01-18T00:14:11.126Z,99286.45
2019-01-18T00:16:41.759Z,99290.08
2019-01-18T00:19:12.592Z,99294.42
2019-01-18T00:21:43.486Z,99304.55
2019-01-18T00:24:14.161Z,99309.70
2019-01-18T00:26:45.230Z,99306.39
2019-01-18T00:29:16.106Z,99308.03
2019-01-18T00:31:46.913Z,99302.88
2019-01-18T00:34:17.716Z,99306.05
2019-01-18T00:36:48.673Z,99306.02
2019-01-18T00:39:19.251Z,99306.22
2019-01-18T00:41:50.068Z,99305.38
2019-01-18T00:44:21.030Z,99306.89
2019-01-18T00:46:52.107Z,99310.51
2019-01-18T00:49:22.897Z,99318.17
2019-01-18T00:51:53.685Z,99319.34
2019-01-18T00:54:24.565Z,99334.44
2019-01-18T00:56:55.506Z,99337.56
2019-01-18T00:59:26.385Z,99340.91
2019-01-18T01:01:57.229Z,99341.74
2019-01-18T01:04:28.026Z,99338.77
2019-01-18T01:06:59.000Z,99338.60
2019-01-18T01:09:29.792Z,99344.59
2019-01-18T01:12:00.711Z,99339.61
2019-01-18T01:14:31.602Z,99339.40
2019-01-18T01:17:02.466Z,99339.55
2019-01-18T01:19:33.442Z,99340.70
2019-01-18T01:22:04.414Z,99348.16
2019-01-18T01:24:34.986Z,99348.33
2019-01-18T01:27:06.069Z,99351.95
2019-01-18T01:29:42.945Z,99359.72
2019-01-18T01:32:10.128Z,99363.13
2019-01-18T01:34:41.057Z,99359.02
2019-01-18T01:37:13.046Z,99363.67
2019-01-18T01:39:43.956Z,99354.37
2019-01-18T01:42:14.820Z,99361.98
2019-01-18T01:44:45.698Z,99364.62
2019-01-18T01:47:16.682Z,99370.88
2019-01-18T01:49:47.570Z,99371.55
2019-01-18T01:52:18.498Z,99379.89
2019-01-18T01:54:49.461Z,99389.70
2019-01-18T01:57:20.373Z,99391.13
2019-01-18T01:59:51.126Z,99398.33
2019-01-18T02:02:22.012Z,99400.50
2019-01-18T02:04:52.796Z,99405.22
2019-01-18T02:07:23.922Z,99404.53
2019-01-18T02:09:54.817Z,99404.25
2019-01-18T02:12:25.582Z,99411.95
2019-01-18T02:14:56.278Z,99410.18
2019-01-18T02:17:28.226Z,99412.54
2019-01-18T02:19:59.038Z,99404.91
2019-01-18T02:22:29.953Z,99412.89
2019-01-18T02:25:00.715Z,99414.35
2019-01-18T02:27:31.686Z,99422.08
2019-01-18T02:30:02.505Z,99428.13
2019-01-18T02:32:33.513Z,99429.66
2019-01-18T02:35:04.874Z,99428.55
2019-01-18T02:37:35.865Z,99424.12
2019-01-18T02:40:07.727Z,99423.94
2019-01-18T02:42:38.957Z,99422.20
2019-01-18T02:45:11.109Z,99424.80
2019-01-18T02:47:41.935Z,99418.88
2019-01-18T02:50:13.182Z,99420.85
2019-01-18T02:52:43.981Z,99416.94
2019-01-18T02:55:15.462Z,99422.08
2019-01-18T02:57:46.549Z,99431.69
2019-01-18T03:00:21.754Z,99425.09
2019-01-18T03:02:52.982Z,99430.30
2019-01-18T03:05:25.771Z,99430.39
2019-01-18T03:07:56.773Z,99438.67
2019-01-18T03:10:32.031Z,99433.21
2019-01-18T03:13:02.955Z,99434.73
2019-01-18T03:15:33.823Z,99432.92
2019-01-18T03:18:04.815Z,99431.47
2019-01-18T03:20:35.598Z,99431.83
2019-01-18T03:23:06.913Z,99440.59
2019-01-18T03:25:37.803Z,99439.06
2019-01-18T03:28:08.505Z,99441.92
2019-01-18T03:30:39.359Z,99434.45
2019-01-18T03:33:10.144Z,99439.91
2019-01-18T03:35:40.969Z,99444.77
2019-01-18T03:38:11.915Z,99437.81
2019-01-18T03:40:42.844Z,99438.81
2019-01-18T03:43:13.791Z,99441.00
2019-01-18T03:45:44.584Z,99445.27
2019-01-18T03:48:15.473Z,99437.26
2019-01-18T03:50:46.387Z,99441.27
2019-01-18T03:53:18.261Z,99443.08
2019-01-18T03:55:49.389Z,99435.22
2019-01-18T03:58:20.238Z,99438.03
2019-01-18T04:00:51.037Z,99441.97
2019-01-18T04:03:22.010Z,99440.64
2019-01-18T04:05:52.905Z,99434.42
2019-01-18T04:08:23.731Z,99439.08
2019-01-18T04:10:54.714Z,99439.20
2019-01-18T04:13:25.234Z,99428.34
2019-01-18T04:15:55.878Z,99433.52
2019-01-18T04:18:26.731Z,99425.66
2019-01-18T04:20:57.350Z,99424.45
2019-01-18T04:23:28.049Z,99436.06
2019-01-18T04:25:58.915Z,99427.63
2019-01-18T04:28:29.874Z,99427.27
2019-01-18T04:31:00.573Z,99430.64
2019-01-18T04:33:31.341Z,99433.41
2019-01-18T04:36:02.226Z,99436.61
2019-01-18T04:38:33.244Z,99435.29
2019-01-18T04:41:04.142Z,99439.09
2019-01-18T04:43:35.167Z,99440.06
2019-01-18T04:46:06.087Z,99442.07
2019-01-18T04:48:36.893Z,99442.27
2019-01-18T04:51:07.796Z,99452.87
2019-01-18T04:53:39.250Z,99450.95
2019-01-18T04:56:09.987Z,99453.22
2019-01-18T04:58:40.953Z,99463.49
2019-01-18T05:01:11.746Z,99466.57
2019-01-18T05:03:42.551Z,99467.80
2019-01-18T05:06:13.425Z,99480.07
2019-01-18T05:08:44.164Z,99480.39
2019-01-18T05:11:15.066Z,99490.25
2019-01-18T05:13:45.843Z,99488.45
2019-01-18T05:16:16.735Z,99485.16
2019-01-18T05:18:47.280Z,99495.12
2019-01-18T05:21:17.822Z,99489.92
2019-01-18T05:23:48.721Z,99483.77
2019-01-18T05:26:19.597Z,99491.73
2019-01-18T05:28:51.564Z,99493.05
2019-01-18T05:31:22.399Z,99494.10
2019-01-18T05:33:53.535Z,99496.66
2019-01-18T05:36:24.005Z,99495.27
2019-01-18T05:38:54.599Z,99491.30
2019-01-18T05:41:25.073Z,99495.58
2019-01-18T05:43:55.874Z,99501.20
2019-01-18T05:46:26.775Z,99507.69
2019-01-18T05:48:57.294Z,99509.09
2019-01-18T05:51:27.858Z,99509.69
2019-01-18T05:53:58.731Z,99511.13
2019-01-18T05:56:29.333Z,99513.62
2019-01-18T05:58:59.926Z,99515.73
2019-01-18T06:01:30.543Z,99520.92
2019-01-18T06:04:01.130Z,99528.15
2019-01-18T06:06:31.610Z,99532.78
2019-01-18T06:09:02.213Z,99527.54
2019-01-18T06:11:33.686Z,99531.81
2019-01-18T06:14:04.327Z,99526.83
2019-01-18T06:16:34.796Z,99527.84
2019-01-18T06:19:05.987Z,99527.36
2019-01-18T06:21:36.693Z,99520.28
2019-01-18T06:24:08.619Z,99526.84
2019-01-18T06:26:39.160Z,99527.44
2019-01-18T06:29:09.902Z,99529.03
2019-01-18T06:31:40.388Z,99534.02
2019-01-18T06:34:10.989Z,99534.34
2019-01-18T06:36:41.472Z,99535.41
2019-01-18T06:39:12.000Z,99546.17
2019-01-18T06:41:52.139Z,99543.92
2019-01-18T06:44:23.312Z,99539.11
2019-01-18T06:46:54.523Z,99543.81
2019-01-18T06:49:25.169Z,99544.30
2019-01-18T06:51:55.716Z,99548.73
2019-01-18T06:54:26.284Z,99549.00
2019-01-18T06:56:56.944Z,99547.50
2019-01-18T06:59:27.720Z,99549.55
2019-01-18T07:01:58.624Z,99547.73
2019-01-18T07:04:29.399Z,99557.38
2019-01-18T07:07:00.292Z,99557.70
2019-01-18T07:09:31.122Z,99562.78
2019-01-18T07:12:01.558Z,99566.34
2019-01-18T07:14:33.356Z,99565.16
2019-01-18T07:17:03.944Z,99575.36
2019-01-18T07:19:34.473Z,99584.96
2019-01-18T07:22:05.077Z,99583.97
2019-01-18T07:24:35.593Z,99588.06
2019-01-18T07:27:06.078Z,99587.13
2019-01-18T07:29:36.591Z,99590.41
2019-01-18T07:32:07.087Z,99597.00
2019-01-18T07:34:39.018Z,99597.27
2019-01-18T07:37:09.489Z,99601.42
2019-01-18T07:39:40.076Z,99596.91
2019-01-18T07:42:10.547Z,99605.55
2019-01-18T07:44:41.441Z,99600.48
2019-01-18T07:47:11.911Z,99598.77
2019-01-18T07:49:42.421Z,99597.66
2019-01-18T07:52:12.900Z,99605.69
2019-01-18T07:54:43.409Z,99608.91
2019-01-18T07:57:14.387Z,99609.30
2019-01-18T07:59:44.955Z,99606.88
2019-01-18T08:02:15.426Z,99612.72
2019-01-18T08:04:46.021Z,99611.22
2019-01-18T08:07:16.814Z,99626.08
2019-01-18T08:09:47.349Z,99615.02
2019-01-18T08:12:17.827Z,99627.64
2019-01-18T08:14:48.421Z,99626.84
2019-01-18T08:17:18.929Z,99632.22
2019-01-18T08:19:49.422Z,99635.00
2019-01-18T08:22:20.070Z,99631.78
2019-01-18T08:24:50.763Z,99634.57
2019-01-18T08:27:21.234Z,99631.08
2019-01-18T08:29:51.783Z,99636.23
2019-01-18T08:32:22.261Z,99629.88
2019-01-18T08:34:52.841Z,99630.77
2019-01-18T08:37:23.776Z,99636.94
2019-01-18T08:39:54.310Z,99634.48
2019-01-18T08:42:25.099Z,99636.14
2019-01-18T08:44:55.775Z,99636.55
2019-01-18T08:47:27.327Z,99641.85
2019-01-18T08:49:57.857Z,99636.13
2019-01-18T08:52:28.656Z,99639.36
2019-01-18T08:54:59.227Z,99642.54
2019-01-18T08:57:29.723Z,99638.66
2019-01-18T09:00:00.321Z,99644.34
2019-01-18T09:02:30.793Z,99645.56
2019-01-18T09:05:01.313Z,99647.25
2019-01-18T09:07:31.792Z,99647.89
2019-01-18T09:10:02.396Z,99645.41
2019-01-18T09:12:32.874Z,99647.98
2019-01-18T09:15:03.734Z,99653.30
2019-01-18T09:17:34.207Z,99656.63
2019-01-18T09:20:06.023Z,99663.08
2019-01-18T09:22:36.534Z,99659.27
2019-01-18T09:25:07.466Z,99660.47
2019-01-18T09:27:38.039Z,99671.14
2019-01-18T09:30:12.057Z,99668.00
2019-01-18T09:32:43.813Z,99674.19
2019-01-18T09:35:15.563Z,99676.52
2019-01-18T09:37:46.399Z,99677.21
2019-01-18T09:40:19.498Z,99678.53
2019-01-18T09:42:50.080Z,99677.17
2019-01-18T09:45:20.882Z,99672.58
2019-01-18T09:47:51.730Z,99677.21
2019-01-18T09:50:25.510Z,99679.14
2019-01-18T09:52:56.296Z,99677.94
2019-01-18T09:55:27.382Z,99683.41
2019-01-18T09:57:57.882Z,99683.48
2019-01-18T10:00:30.773Z,99679.83
2019-01-18T10:03:01.897Z,99668.56
2019-01-18T10:05:33.292Z,99676.05
2019-01-18T10:08:05.198Z,99689.16
2019-01-18T10:10:36.265Z,99686.83
2019-01-18T10:13:06.726Z,99688.56
2019-01-18T10:15:40.027Z,99679.38
2019-01-18T10:18:10.633Z,99678.83
2019-01-18T10:20:41.268Z,99673.87
2019-01-18T10:23:12.476Z,99674.39
2019-01-18T10:25:43.708Z,99675.88
2019-01-18T10:28:14.278Z,99677.66
2019-01-18T10:30:45.029Z,99677.33
2019-01-18T10:33:15.501Z,99675.36
2019-01-18T10:35:46.302Z,99667.95
2019-01-18T10:38:16.809Z,99671.30
2019-01-18T10:40:47.554Z,99673.30
2019-01-18T10:43:18.075Z,99667.95
2019-01-18T10:45:48.907Z,99661.42
2019-01-18T10:48:19.375Z,99663.63
2019-01-18T10:50:50.402Z,99669.16
2019-01-18T10:53:20.875Z,99666.46
2019-01-18T10:55:51.410Z,99660.66
2019-01-18T10:58:22.026Z,99660.80
2019-01-18T11:00:52.666Z,99657.86
2019-01-18T11:03:23.136Z,99654.19
2019-01-18T11:05:53.666Z,99655.36
2019-01-18T11:08:24.137Z,99650.27
2019-01-18T11:10:55.097Z,99648.94
2019-01-18T11:13:25.557Z,99645.27
2019-01-18T11:15:56.451Z,99640.36
2019-01-18T11:18:27.331Z,99644.84
2019-01-18T11:21:05.454Z,99641.31
2019-01-18T11:23:36.269Z,99642.10
2019-01-18T11:26:07.118Z,99643.06
2019-01-18T11:28:37.805Z,99639.84
2019-01-18T11:31:08.375Z,99636.90
2019-01-18T11:33:39.098Z,99634.08
2019-01-18T11:36:09.642Z,99629.13
2019-01-18T11:38:40.532Z,99618.98
2019-01-18T11:41:11.113Z,99615.48
2019-01-18T11:43:41.593Z,99613.66
2019-01-18T11:46:12.472Z,99606.20
2019-01-18T11:48:43.398Z,99600.68
2019-01-18T11:51:14.193Z,99599.03
2019-01-18T11:53:44.970Z,99589.70
2019-01-18T11:56:15.735Z,99590.84
2019-01-18T11:58:46.238Z,99580.04
2019-01-18T12:01:16.920Z,99584.18
2019-01-18T12:03:47.768Z,99578.70
2019-01-18T12:06:18.558Z,99578.06
2019-01-18T12:08:49.442Z,99576.73
2019-01-18T12:11:20.321Z,99577.39
2019-01-18T12:13:51.250Z,99580.23
2019-01-18T12:16:22.145Z,99573.92
2019-01-18T12:18:53.946Z,99573.45
2019-01-18T12:21:24.742Z,99571.30
2019-01-18T12:23:55.586Z,99569.63
2019-01-18T12:26:26.861Z,99563.44
2019-01-18T12:28:57.806Z,99563.44
2019-01-18T12:31:28.611Z,99566.77
2019-01-18T12:33:59.342Z,99562.77
2019-01-18T12:36:29.866Z,99564.30
2019-01-18T12:39:00.706Z,99563.28
2019-01-18T12:41:33.040Z,99560.13
2019-01-18T12:44:03.542Z,99561.79
2019-01-18T12:46:34.126Z,99554.80
2019-01-18T12:49:04.968Z,99560.13
2019-01-18T12:51:36.072Z,99557.62
2019-01-18T12:54:06.950Z,99557.48
2019-01-18T12:56:38.082Z,99556.97
2019-01-18T12:59:08.866Z,99554.14
2019-01-18T13:01:39.863Z,99553.82
2019-01-18T13:04:10.537Z,99559.47
2019-01-18T13:06:41.908Z,99555.97
2019-01-18T13:09:12.829Z,99554.16
2019-01-18T13:11:43.714Z,99541.33
2019-01-18T13:14:14.507Z,99548.16
2019-01-18T13:16:46.990Z,99543.16
2019-01-18T13:19:20.549Z,99541.17
2019-01-18T13:21:51.422Z,99540.66
2019-01-18T13:24:22.306Z,99543.31
2019-01-18T13:26:54.539Z,99536.34
2019-01-18T13:29:25.317Z,99539.34
2019-01-18T13:31:56.354Z,99529.33
2019-01-18T13:34:27.226Z,99532.34
2019-01-18T13:36:58.119Z,99532.52
2019-01-18T13:39:29.008Z,99529.84
2019-01-18T13:42:00.043Z,99528.52
2019-01-18T13:44:31.802Z,99526.52
2019-01-18T13:47:02.550Z,99528.52
2019-01-18T13:49:33.339Z,99527.50
2019-01-18T13:52:04.229Z,99531.67
2019-01-18T13:54:35.126Z,99533.17
2019-01-18T13:57:06.717Z,99527.00
2019-01-18T13:59:37.538Z,99529.84
2019-01-18T14:02:08.675Z,99528.85
2019-01-18T14:04:39.414Z,99533.84
2019-01-18T14:07:10.210Z,99528.85
2019-01-18T14:09:40.978Z,99529.34
2019-01-18T14:12:11.863Z,99527.17
2019-01-18T14:14:42.898Z,99533.85
2019-01-18T14:17:13.638Z,99529.02
2019-01-18T14:19:44.408Z,99522.53
2019-01-18T14:22:15.277Z,99527.52
2019-01-18T14:24:45.798Z,99528.02
2019-01-18T14:27:16.752Z,99530.16
2019-01-18T14:29:47.822Z,99528.86
2019-01-18T14:32:18.661Z,99529.50
2019-01-18T14:34:49.553Z,99528.34
2019-01-18T14:37:20.410Z,99529.01
2019-01-18T14:39:51.198Z,99521.19
2019-01-18T14:42:21.978Z,99525.19
2019-01-18T14:44:52.766Z,99523.86
2019-01-18T14:47:23.659Z,99521.52
2019-01-18T14:49:54.365Z,99526.17
2019-01-18T14:52:25.140Z,99519.52
2019-01-18T14:54:55.941Z,99519.86
2019-01-18T14:57:28.483Z,99513.20
2019-01-18T14:59:59.346Z,99515.69
2019-01-18T15:02:30.171Z,99514.85
2019-01-18T15:05:00.818Z,99520.17
2019-01-18T15:07:31.505Z,99517.38
2019-01-18T15:10:05.115Z,99511.86
2019-01-18T15:12:34.853Z,99513.55
2019-01-18T15:15:06.514Z,99517.86
2019-01-18T15:17:37.492Z,99517.05
2019-01-18T15:20:12.978Z,99512.87
2019-01-18T15:22:44.230Z,99516.35
2019-01-18T15:25:15.082Z,99513.20
2019-01-18T15:27:46.061Z,99515.20
2019-01-18T15:30:19.287Z,99508.19
2019-01-18T15:32:50.098Z,99506.89
2019-01-18T15:35:22.823Z,99504.40
2019-01-18T15:37:53.875Z,99502.05
2019-01-18T15:40:26.114Z,99496.55
2019-01-18T15:42:58.858Z,99502.89
2019-01-18T15:45:29.721Z,99500.57
2019-01-18T15:48:00.578Z,99497.55
2019-01-18T15:50:33.960Z,99496.39
2019-01-18T15:53:04.947Z,99496.22
2019-01-18T15:55:36.007Z,99492.39
2019-01-18T15:58:08.048Z,99494.91
2019-01-18T16:00:40.998Z,99489.09
2019-01-18T16:03:15.788Z,99490.91
2019-01-18T16:05:45.622Z,99488.91
2019-01-18T16:08:16.410Z,99482.91
2019-01-18T16:10:47.199Z,99485.92
2019-01-18T16:13:18.159Z,99485.41
2019-01-18T16:15:57.992Z,99476.94
2019-01-18T16:18:30.278Z,99479.25
2019-01-18T16:21:01.027Z,99482.93
2019-01-18T16:23:32.194Z,99478.23
2019-01-18T16:26:03.106Z,99474.10
2019-01-18T16:28:36.285Z,99472.27
2019-01-18T16:31:07.137Z,99467.25
2019-01-18T16:33:38.110Z,99461.30
2019-01-18T16:36:09.242Z,99467.43
2019-01-18T16:38:40.252Z,99465.60
2019-01-18T16:41:11.990Z,99463.92
2019-01-18T16:43:45.298Z,99463.08
2019-01-18T16:46:15.951Z,99467.41
2019-01-18T16:48:46.935Z,99458.61
2019-01-18T16:51:17.728Z,99459.61
2019-01-18T16:53:48.525Z,99455.13
2019-01-18T16:56:19.379Z,99453.08
2019-01-18T16:58:50.085Z,99449.23
2019-01-18T17:01:20.971Z,99456.03
2019-01-18T17:03:51.793Z,99452.53
2019-01-18T17:06:22.573Z,99452.48
2019-01-18T17:08:53.629Z,99457.41
2019-01-18T17:11:24.515Z,99451.13
2019-01-18T17:13:55.206Z,99450.77
2019-01-18T17:16:26.297Z,99452.63
2019-01-18T17:18:57.263Z,99449.47
2019-01-18T17:21:29.380Z,99448.66
2019-01-18T17:24:00.186Z,99448.86
2019-01-18T17:26:31.115Z,99449.53
2019-01-18T17:29:01.914Z,99448.06
2019-01-18T17:31:33.070Z,99450.20
2019-01-18T17:34:03.971Z,99447.88
2019-01-18T17:37:10.898Z,99447.53
2019-01-18T17:40:21.011Z,99450.29
2019-01-18T17:43:44.805Z,99445.33
2019-01-18T17:46:45.747Z,99448.66
2019-01-18T17:50:24.816Z,99444.52
2019-01-18T17:53:24.388Z,99450.13
2019-01-18T17:56:26.362Z,99445.77
2019-01-18T17:59:29.294Z,99447.43
2019-01-18T18:02:32.570Z,99445.10
2019-01-18T18:05:32.355Z,99439.75
2019-01-18T18:08:43.655Z,99442.40
2019-01-18T18:11:37.933Z,99442.86
2019-01-18T18:14:43.711Z,99445.14
2019-01-18T18:17:45.765Z,99442.38
2019-01-18T18:21:11.023Z,99444.51
2019-01-18T18:24:18.354Z,99452.92
2019-01-18T18:27:28.302Z,99441.30
2019-01-18T18:30:32.499Z,99436.32
2019-01-18T18:33:33.829Z,99440.78
2019-01-18T18:36:51.819Z,99444.66
2019-01-18T18:40:06.534Z,99439.64
2019-01-18T18:42:42.586Z,99436.98
2019-01-18T18:46:06.580Z,99435.66
2019-01-18T18:49:05.031Z,99437.31
2019-01-18T18:52:12.751Z,99428.51
2019-01-18T18:55:45.500Z,99426.31
2019-01-18T18:58:45.764Z,99422.84
2019-01-18T19:01:54.246Z,99420.67
2019-01-18T19:04:47.307Z,99412.69
2019-01-18T19:07:47.122Z,99413.04
2019-01-18T19:10:42.224Z,99416.70
2019-01-18T19:14:15.012Z,99414.57
2019-01-18T19:17:15.999Z,99409.42
2019-01-18T19:20:18.838Z,99407.73
2019-01-18T19:23:29.415Z,99400.55
2019-01-18T19:26:41.818Z,99398.34
2019-01-18T19:29:46.454Z,99395.02
2019-01-18T19:32:47.217Z,99390.11
2019-01-18T19:35:38.346Z,99397.91
2019-01-18T19:38:26.038Z,99389.43
2019-01-18T19:41:45.617Z,99386.13
2019-01-18T19:44:37.516Z,99387.98
2019-01-18T19:47:47.604Z,99386.25
2019-01-18T19:50:57.648Z,99394.25
2019-01-18T19:53:57.304Z,99390.95
2019-01-18T19:57:23.799Z,99389.07
2019-01-18T20:00:22.191Z,99380.03
2019-01-18T20:03:14.567Z,99385.01
2019-01-18T20:06:12.553Z,99388.51
2019-01-18T20:08:56.643Z,99388.70
2019-01-18T20:12:04.354Z,99386.17
2019-01-18T20:15:31.463Z,99386.38
2019-01-18T20:18:31.804Z,99383.97
2019-01-18T20:21:54.570Z,99388.70
2019-01-18T20:25:10.218Z,99395.60
2019-01-18T20:28:08.041Z,99388.87
2019-01-18T20:31:00.401Z,99390.19
2019-01-18T20:34:19.675Z,99393.32
2019-01-18T20:37:30.975Z,99393.91
2019-01-18T20:40:30.006Z,99395.95
2019-01-18T20:43:44.716Z,99399.02
2019-01-18T20:47:02.864Z,99390.70
2019-01-18T20:50:30.013Z,99392.14
2019-01-18T20:54:00.170Z,99396.63
2019-01-18T20:57:14.489Z,99394.50
2019-01-18T21:00:21.165Z,99397.18
2019-01-18T21:03:39.427Z,99400.98
2019-01-18T21:06:42.510Z,99403.53
2019-01-18T21:09:41.532Z,99403.00
2019-01-18T21:12:48.794Z,99403.53
2019-01-18T21:16:00.414Z,99402.69
2019-01-18T21:19:05.724Z,99405.55
2019-01-18T21:22:32.416Z,99401.83
2019-01-18T21:25:41.813Z,99404.80
2019-01-18T21:28:49.110Z,99404.27
2019-01-18T21:32:18.022Z,99398.13
2019-01-18T21:35:47.912Z,99394.62
2019-01-18T21:38:53.675Z,99404.02
2019-01-18T21:41:58.836Z,99396.05
2019-01-18T21:45:00.472Z,99396.33
2019-01-18T21:48:30.103Z,99398.69
2019-01-18T21:51:44.827Z,99396.25
2019-01-18T21:55:01.463Z,99402.36
2019-01-18T21:58:11.421Z,99390.52
2019-01-18T22:01:41.089Z,99395.91
2019-01-18T22:04:32.365Z,99398.83
2019-01-18T22:07:36.822Z,99397.22
2019-01-18T22:10:50.207Z,99396.53
2019-01-18T22:13:42.281Z,99395.11
2019-01-18T22:16:42.772Z,99401.67
2019-01-18T22:20:15.415Z,99405.61
2019-01-18T22:23:48.043Z,99401.05
2019-01-18T22:26:46.247Z,99400.17
2019-01-18T22:29:48.802Z,99399.81
2019-01-18T22:32:55.383Z,99400.34
2019-01-18T22:36:12.000Z,99404.95
2019-01-18T22:39:16.347Z,99402.67
2019-01-18T22:42:31.071Z,99405.95
2019-01-18T22:45:19.165Z,99411.53
2019-01-18T22:48:27.672Z,99409.47
2019-01-18T22:51:30.217Z,99414.55
2019-01-18T22:54:26.194Z,99412.53
2019-01-18T22:57:16.331Z,99411.72
2019-01-18T23:00:57.313Z,99408.71
2019-01-18T23:04:04.958Z,99412.28
2019-01-18T23:07:22.742Z,99416.25
2019-01-18T23:10:49.539Z,99405.77
2019-01-18T23:13:56.988Z,99405.91
2019-01-18T23:17:03.098Z,99404.13
2019-01-18T23:20:29.999Z,99403.23
2019-01-18T23:23:45.784Z,99396.35
2019-01-18T23:27:00.148Z,99397.39
2019-01-18T23:30:07.447Z,99393.09
2019-01-18T23:32:52.748Z,99394.29
2019-01-18T23:36:02.470Z,99390.63
2019-01-18T23:39:23.276Z,99391.44
2019-01-18T23:43:04.427Z,99388.20
2019-01-18T23:45:58.410Z,99384.87
2019-01-18T23:49:01.347Z,99379.83
2019-01-18T23:52:08.616Z,99378.21
2019-01-18T23:55:23.177Z,99382.88
2019-01-18T23:58:26.268Z,99377.59
